createdAt,value
2022-10-24T00:01:45.997Z,69.90
2022-10-24T00:04:14.076Z,69.90
2022-10-24T00:06:42.392Z,69.90
2022-10-24T00:09:10.484Z,69.90
2022-10-24T00:11:38.999Z,69.90
2022-10-24T00:14:07.198Z,69.90
2022-10-24T00:16:36.910Z,69.90
2022-10-24T00:19:05.189Z,69.90
2022-10-24T00:21:33.268Z,69.90
2022-10-24T00:24:01.347Z,69.90
2022-10-24T00:26:30.067Z,69.90
2022-10-24T00:28:58.305Z,69.90
2022-10-24T00:31:26.691Z,69.90
2022-10-24T00:33:56.655Z,69.90
2022-10-24T00:36:25.662Z,69.90
2022-10-24T00:38:53.814Z,69.90
2022-10-24T00:41:24.538Z,69.90
2022-10-24T00:43:53.134Z,69.90
2022-10-24T00:46:21.745Z,69.90
2022-10-24T00:48:53.264Z,69.90
2022-10-24T00:51:26.624Z,69.90
2022-10-24T00:54:00.456Z,69.90
2022-10-24T00:56:31.952Z,69.90
2022-10-24T00:59:03.150Z,69.90
2022-10-24T01:01:31.419Z,69.90
2022-10-24T01:03:59.595Z,69.90
2022-10-24T01:06:43.746Z,69.90
2022-10-24T01:09:25.285Z,69.90
2022-10-24T01:12:04.208Z,69.90
2022-10-24T01:14:43.395Z,69.90
2022-10-24T01:17:17.893Z,69.90
2022-10-24T01:20:14.551Z,69.90
2022-10-24T01:22:57.803Z,69.80
2022-10-24T01:25:38.310Z,69.90
2022-10-24T01:28:12.526Z,69.90
2022-10-24T01:30:45.620Z,69.90
2022-10-24T01:33:22.770Z,69.80
2022-10-24T01:35:55.643Z,69.80
2022-10-24T01:38:30.043Z,69.80
2022-10-24T01:41:01.586Z,69.80
2022-10-24T01:43:32.614Z,69.80
2022-10-24T01:46:09.419Z,69.80
2022-10-24T01:48:42.480Z,69.80
2022-10-24T01:51:14.603Z,69.80
2022-10-24T01:53:44.371Z,69.80
2022-10-24T01:56:12.584Z,69.80
2022-10-24T01:58:40.671Z,69.80
2022-10-24T02:01:14.010Z,69.80
2022-10-24T02:03:47.770Z,69.80
2022-10-24T02:06:20.476Z,69.80
2022-10-24T02:08:53.522Z,69.80
2022-10-24T02:11:21.786Z,69.90
2022-10-24T02:13:54.398Z,69.80
2022-10-24T02:16:23.922Z,69.80
2022-10-24T02:18:56.436Z,69.80
2022-10-24T02:21:32.313Z,69.90
2022-10-24T02:24:03.807Z,69.90
2022-10-24T02:26:35.617Z,69.90
2022-10-24T02:29:09.622Z,69.90
2022-10-24T02:31:44.362Z,69.90
2022-10-24T02:34:14.060Z,69.90
2022-10-24T02:36:43.580Z,69.90
2022-10-24T02:39:13.703Z,69.90
2022-10-24T02:41:45.349Z,69.90
2022-10-24T02:44:16.485Z,69.90
2022-10-24T02:46:47.800Z,69.90
2022-10-24T02:49:15.979Z,69.90
2022-10-24T02:51:46.245Z,69.90
2022-10-24T02:54:14.571Z,69.90
2022-10-24T02:56:49.836Z,69.90
2022-10-24T02:59:18.063Z,69.90
2022-10-24T03:01:47.659Z,69.90
2022-10-24T03:04:15.986Z,69.90
2022-10-24T03:06:44.305Z,69.90
2022-10-24T03:09:12.410Z,69.90
2022-10-24T03:11:40.882Z,69.90
2022-10-24T03:14:08.934Z,69.90
2022-10-24T03:16:37.024Z,69.90
2022-10-24T03:19:06.518Z,69.90
2022-10-24T03:21:34.674Z,69.90
2022-10-24T03:24:02.780Z,69.80
2022-10-24T03:26:30.872Z,69.80
2022-10-24T03:28:59.002Z,69.80
2022-10-24T03:31:27.560Z,69.80
2022-10-24T03:33:55.730Z,69.80
2022-10-24T03:36:25.362Z,69.80
2022-10-24T03:38:53.436Z,69.90
2022-10-24T03:41:21.554Z,69.80
2022-10-24T03:43:49.730Z,69.80
2022-10-24T03:46:17.849Z,69.90
2022-10-24T03:48:45.967Z,69.80
2022-10-24T03:51:14.081Z,69.80
2022-10-24T03:53:43.535Z,69.80
2022-10-24T03:56:11.693Z,69.80
2022-10-24T03:58:39.801Z,69.80
2022-10-24T04:01:10.029Z,69.80
2022-10-24T04:03:38.209Z,69.80
2022-10-24T04:06:06.524Z,69.80
2022-10-24T04:08:34.662Z,69.80
2022-10-24T04:11:04.146Z,69.80
2022-10-24T04:13:33.272Z,69.80
2022-10-24T04:16:01.353Z,69.80
2022-10-24T04:18:29.476Z,69.80
2022-10-24T04:20:57.553Z,69.80
2022-10-24T04:23:26.773Z,69.80
2022-10-24T04:25:55.221Z,69.80
2022-10-24T04:28:24.707Z,69.80
2022-10-24T04:30:56.094Z,69.80
2022-10-24T04:33:24.598Z,69.80
2022-10-24T04:35:53.433Z,69.90
2022-10-24T04:38:22.269Z,69.90
2022-10-24T04:40:53.044Z,69.90
2022-10-24T04:43:22.689Z,70.00
2022-10-24T04:45:52.432Z,70.00
2022-10-24T04:48:20.664Z,69.90
2022-10-24T04:50:49.272Z,70.00
2022-10-24T04:53:17.416Z,70.00
2022-10-24T04:55:46.200Z,70.20
2022-10-24T04:58:14.891Z,70.20
2022-10-24T05:00:46.622Z,70.30
2022-10-24T05:03:16.210Z,70.30
2022-10-24T05:05:44.661Z,70.30
2022-10-24T05:08:13.061Z,70.40
2022-10-24T05:10:41.216Z,70.40
2022-10-24T05:13:09.374Z,70.40
2022-10-24T05:15:37.879Z,70.50
2022-10-24T05:18:05.979Z,70.60
2022-10-24T05:20:35.522Z,70.60
2022-10-24T05:23:03.660Z,70.60
2022-10-24T05:25:31.810Z,70.60
2022-10-24T05:27:59.930Z,70.50
2022-10-24T05:30:28.174Z,70.60
2022-10-24T05:32:56.272Z,70.60
2022-10-24T05:35:24.437Z,70.60
2022-10-24T05:37:53.898Z,70.60
2022-10-24T05:40:22.132Z,70.60
2022-10-24T05:42:52.175Z,70.60
2022-10-24T05:45:20.568Z,70.60
2022-10-24T05:47:48.756Z,70.60
2022-10-24T05:50:17.607Z,70.70
2022-10-24T05:52:47.186Z,70.80
2022-10-24T05:55:18.053Z,70.70
2022-10-24T05:57:47.143Z,70.80
2022-10-24T06:00:17.454Z,70.80
2022-10-24T06:05:20.020Z,70.80
2022-10-24T06:07:48.619Z,70.70
2022-10-24T06:10:18.411Z,70.70
2022-10-24T06:12:46.758Z,70.80
2022-10-24T06:15:15.154Z,70.70
2022-10-24T06:17:43.231Z,70.70
2022-10-24T06:20:12.030Z,70.80
2022-10-24T06:22:40.194Z,70.70
2022-10-24T06:25:08.853Z,70.70
2022-10-24T06:27:38.386Z,70.70
2022-10-24T06:30:10.196Z,70.70
2022-10-24T06:32:39.659Z,70.70
2022-10-24T06:35:13.259Z,70.70
2022-10-24T06:37:44.335Z,70.80
2022-10-24T06:40:15.370Z,70.80
2022-10-24T06:42:45.191Z,70.90
2022-10-24T06:45:13.408Z,70.90
2022-10-24T06:47:41.779Z,71.10
2022-10-24T06:50:10.611Z,71.20
2022-10-24T06:52:38.748Z,71.00
2022-10-24T06:55:07.566Z,70.90
2022-10-24T06:57:35.805Z,70.90
2022-10-24T07:00:06.251Z,70.90
2022-10-24T07:02:34.492Z,70.90
2022-10-24T07:05:02.690Z,70.90
2022-10-24T07:07:30.863Z,70.90
2022-10-24T07:09:59.424Z,70.90
2022-10-24T07:12:27.938Z,70.90
2022-10-24T07:14:56.004Z,70.90
2022-10-24T07:17:25.484Z,70.90
2022-10-24T07:19:54.755Z,70.90
2022-10-24T07:22:23.190Z,70.90
2022-10-24T07:24:54.151Z,70.90
2022-10-24T07:27:22.656Z,70.90
2022-10-24T07:29:51.625Z,70.80
2022-10-24T07:32:20.179Z,70.80
2022-10-24T07:34:49.933Z,70.80
2022-10-24T07:37:18.930Z,70.80
2022-10-24T07:39:47.084Z,70.90
2022-10-24T07:42:15.787Z,70.90
2022-10-24T07:44:43.949Z,70.90
2022-10-24T07:47:12.451Z,70.90
2022-10-24T07:49:43.103Z,70.90
2022-10-24T07:52:12.624Z,70.90
2022-10-24T07:54:40.728Z,70.90
2022-10-24T07:57:08.844Z,70.90
2022-10-24T07:59:42.141Z,70.90
2022-10-24T08:02:12.462Z,70.90
2022-10-24T08:04:40.778Z,70.90
2022-10-24T08:07:13.552Z,70.90
2022-10-24T08:09:45.325Z,70.80
2022-10-24T08:12:13.937Z,70.80
2022-10-24T08:14:42.746Z,70.80
2022-10-24T08:17:10.944Z,70.80
2022-10-24T08:19:43.761Z,70.80
2022-10-24T08:22:12.853Z,70.80
2022-10-24T08:24:40.982Z,70.80
2022-10-24T08:27:10.480Z,70.80
2022-10-24T08:29:38.662Z,70.70
2022-10-24T08:32:07.334Z,70.70
2022-10-24T08:34:35.794Z,70.70
2022-10-24T08:37:05.359Z,70.70
2022-10-24T08:39:33.473Z,70.70
2022-10-24T08:42:04.985Z,70.70
2022-10-24T08:44:37.104Z,70.70
2022-10-24T08:47:12.021Z,70.70
2022-10-24T08:49:45.281Z,70.70
2022-10-24T08:52:30.450Z,70.70
2022-10-24T08:55:04.761Z,70.70
2022-10-24T08:57:35.327Z,70.70
2022-10-24T09:00:13.439Z,70.70
2022-10-24T09:02:48.473Z,70.70
2022-10-24T09:05:23.975Z,70.70
2022-10-24T09:07:56.782Z,70.80
2022-10-24T09:10:34.261Z,70.80
2022-10-24T09:13:02.388Z,70.70
2022-10-24T09:15:32.747Z,70.70
2022-10-24T09:18:01.085Z,70.70
2022-10-24T09:20:33.388Z,70.70
2022-10-24T09:23:05.006Z,70.70
2022-10-24T09:25:36.574Z,70.70
2022-10-24T09:28:06.822Z,70.70
2022-10-24T09:30:37.676Z,70.70
2022-10-24T09:33:16.487Z,70.80
2022-10-24T09:35:45.204Z,70.80
2022-10-24T09:38:33.555Z,70.80
2022-10-24T09:41:05.509Z,70.80
2022-10-24T09:43:38.515Z,70.80
2022-10-24T09:46:11.761Z,70.80
2022-10-24T09:48:55.835Z,70.90
2022-10-24T09:51:32.498Z,70.90
2022-10-24T09:54:08.128Z,70.90
2022-10-24T09:56:39.783Z,70.80
2022-10-24T09:59:30.741Z,70.90
2022-10-24T10:02:26.384Z,70.80
2022-10-24T10:05:22.285Z,70.90
2022-10-24T10:07:51.863Z,70.80
2022-10-24T10:10:32.601Z,70.80
2022-10-24T10:13:05.087Z,70.90
2022-10-24T10:15:37.639Z,70.90
2022-10-24T10:18:24.783Z,70.90
2022-10-24T10:21:02.907Z,70.90
2022-10-24T10:23:33.631Z,70.90
2022-10-24T10:26:17.382Z,71.00
2022-10-24T10:29:07.460Z,71.00
2022-10-24T10:31:43.791Z,71.00
2022-10-24T10:34:21.319Z,71.00
2022-10-24T10:37:23.587Z,71.10
2022-10-24T10:40:20.289Z,71.20
2022-10-24T10:43:06.032Z,71.10
2022-10-24T10:45:39.368Z,71.10
2022-10-24T10:48:23.600Z,71.10
2022-10-24T10:50:57.887Z,71.10
2022-10-24T10:53:34.894Z,71.10
2022-10-24T10:56:17.664Z,71.10
2022-10-24T10:58:57.212Z,71.20
2022-10-24T11:01:33.282Z,71.20
2022-10-24T11:04:09.341Z,71.20
2022-10-24T11:06:47.959Z,71.20
2022-10-24T11:09:37.829Z,71.30
2022-10-24T11:12:12.928Z,71.40
2022-10-24T11:14:44.294Z,71.40
2022-10-24T11:17:17.187Z,71.40
2022-10-24T11:19:57.271Z,71.40
2022-10-24T11:22:29.942Z,71.50
2022-10-24T11:25:03.604Z,71.50
2022-10-24T11:27:39.851Z,71.60
2022-10-24T11:30:15.539Z,71.60
2022-10-24T11:32:50.272Z,71.70
2022-10-24T11:35:26.802Z,71.80
2022-10-24T11:38:00.661Z,71.90
2022-10-24T11:40:31.297Z,71.90
2022-10-24T11:43:08.144Z,71.90
2022-10-24T11:45:43.205Z,71.90
2022-10-24T11:48:18.341Z,71.90
2022-10-24T11:50:51.067Z,71.80
2022-10-24T11:53:40.417Z,71.80
2022-10-24T11:56:18.656Z,71.70
2022-10-24T11:58:54.186Z,71.60
2022-10-24T12:01:51.972Z,71.60
2022-10-24T12:04:58.496Z,71.50
2022-10-24T12:08:13.507Z,71.50
2022-10-24T12:11:02.023Z,71.50
2022-10-24T12:13:45.050Z,72.10
2022-10-24T12:16:23.573Z,72.00
2022-10-24T12:18:57.772Z,72.20
2022-10-24T12:21:29.636Z,73.50
2022-10-24T12:24:00.226Z,74.00
2022-10-24T12:26:32.584Z,74.30
2022-10-24T12:29:03.037Z,74.10
2022-10-24T12:31:33.125Z,74.00
2022-10-24T12:34:37.603Z,74.00
2022-10-24T12:37:11.934Z,74.00
2022-10-24T12:39:44.534Z,74.00
2022-10-24T12:42:37.979Z,74.00
2022-10-24T12:45:30.188Z,73.80
2022-10-24T12:48:29.186Z,73.50
2022-10-24T12:51:22.622Z,73.50
2022-10-24T12:54:16.915Z,73.50
2022-10-24T12:57:34.132Z,73.20
2022-10-24T13:00:02.824Z,73.10
2022-10-24T13:02:55.071Z,72.90
2022-10-24T13:05:50.163Z,72.70
2022-10-24T13:08:43.503Z,72.50
2022-10-24T13:11:37.355Z,72.50
2022-10-24T13:14:28.939Z,72.30
2022-10-24T13:17:06.794Z,72.20
2022-10-24T13:19:37.521Z,72.20
2022-10-24T13:22:05.713Z,72.30
2022-10-24T13:24:36.421Z,72.50
2022-10-24T13:27:30.565Z,72.40
2022-10-24T13:30:05.648Z,72.40
2022-10-24T13:32:35.974Z,72.40
2022-10-24T13:35:07.654Z,72.30
2022-10-24T13:37:41.702Z,72.30
2022-10-24T13:40:15.199Z,72.20
2022-10-24T13:42:50.634Z,72.10
2022-10-24T13:45:26.008Z,72.10
2022-10-24T13:47:57.775Z,72.00
2022-10-24T13:50:31.373Z,72.00
2022-10-24T13:53:03.210Z,72.00
2022-10-24T13:55:36.605Z,71.90
2022-10-24T13:58:12.189Z,71.70
2022-10-24T14:00:43.112Z,71.60
2022-10-24T14:03:16.862Z,71.40
2022-10-24T14:05:50.912Z,71.30
2022-10-24T14:08:25.668Z,71.30
2022-10-24T14:10:55.415Z,71.20
2022-10-24T14:13:26.175Z,71.10
2022-10-24T14:15:57.482Z,71.10
2022-10-24T14:18:25.731Z,71.00
2022-10-24T14:20:57.143Z,71.00
2022-10-24T14:23:29.470Z,71.00
2022-10-24T14:26:00.464Z,71.00
2022-10-24T14:28:30.694Z,71.00
2022-10-24T14:31:01.278Z,71.00
2022-10-24T14:33:30.601Z,71.10
2022-10-24T14:36:02.853Z,71.10
2022-10-24T14:38:31.568Z,71.10
2022-10-24T14:41:09.039Z,71.10
2022-10-24T14:43:42.022Z,71.10
2022-10-24T14:46:28.036Z,71.20
2022-10-24T14:48:56.414Z,71.20
2022-10-24T14:51:33.790Z,71.10
2022-10-24T14:54:07.487Z,71.10
2022-10-24T14:56:37.788Z,71.10
2022-10-24T14:59:08.190Z,71.10
2022-10-24T15:01:36.901Z,71.20
2022-10-24T15:04:06.514Z,71.10
2022-10-24T15:06:40.635Z,71.20
2022-10-24T15:09:20.241Z,71.20
2022-10-24T15:11:59.338Z,71.20
2022-10-24T15:14:38.405Z,71.20
2022-10-24T15:17:30.001Z,71.20
2022-10-24T15:20:03.478Z,71.30
2022-10-24T15:22:35.744Z,71.30
2022-10-24T15:25:06.375Z,71.20
2022-10-24T15:27:41.393Z,71.30
2022-10-24T15:30:15.101Z,71.40
2022-10-24T15:32:43.867Z,71.40
2022-10-24T15:35:13.174Z,71.40
2022-10-24T15:37:53.428Z,71.40
2022-10-24T15:40:23.807Z,71.40
2022-10-24T15:42:54.366Z,71.40
2022-10-24T15:45:23.084Z,71.40
2022-10-24T15:47:52.841Z,71.40
2022-10-24T15:52:58.813Z,71.40
2022-10-24T15:55:28.391Z,71.20
2022-10-24T15:57:59.776Z,71.20
2022-10-24T16:00:28.135Z,71.10
2022-10-24T16:03:00.756Z,71.10
2022-10-24T16:05:31.907Z,71.10
2022-10-24T16:08:01.475Z,71.00
2022-10-24T16:10:29.594Z,71.00
2022-10-24T16:12:57.661Z,71.00
2022-10-24T16:15:29.201Z,70.90
2022-10-24T16:17:57.360Z,70.90
2022-10-24T16:20:25.947Z,70.90
2022-10-24T16:22:54.738Z,70.90
2022-10-24T16:25:26.394Z,70.90
2022-10-24T16:27:54.646Z,70.90
2022-10-24T16:30:24.871Z,71.00
2022-10-24T16:32:53.386Z,71.00
2022-10-24T16:35:24.298Z,70.90
2022-10-24T16:37:52.806Z,71.00
2022-10-24T16:40:22.966Z,71.00
2022-10-24T16:42:51.437Z,71.00
2022-10-24T16:45:20.382Z,71.00
2022-10-24T16:47:48.868Z,71.00
2022-10-24T16:50:21.239Z,71.00
2022-10-24T16:52:49.354Z,71.00
2022-10-24T16:55:17.827Z,70.90
2022-10-24T16:57:48.246Z,71.00
2022-10-24T17:00:19.132Z,71.10
2022-10-24T17:02:48.547Z,71.10
2022-10-24T17:05:17.118Z,71.00
2022-10-24T17:07:45.600Z,71.10
2022-10-24T17:10:16.695Z,71.10
2022-10-24T17:12:48.561Z,71.10
2022-10-24T17:15:21.049Z,71.10
2022-10-24T17:17:50.502Z,71.10
2022-10-24T17:20:18.973Z,71.00
2022-10-24T17:22:47.571Z,71.00
2022-10-24T17:25:21.478Z,71.00
2022-10-24T17:27:51.611Z,71.10
2022-10-24T17:30:22.464Z,71.00
2022-10-24T17:32:51.245Z,71.00
2022-10-24T17:35:21.617Z,71.10
2022-10-24T17:38:08.874Z,71.00
2022-10-24T17:40:43.226Z,71.10
2022-10-24T17:43:20.409Z,71.00
2022-10-24T17:45:49.766Z,71.00
2022-10-24T17:48:18.056Z,71.00
2022-10-24T17:50:46.668Z,71.00
2022-10-24T17:53:15.654Z,71.10
2022-10-24T17:55:47.227Z,71.00
2022-10-24T17:58:17.890Z,71.10
2022-10-24T18:00:46.136Z,71.00
2022-10-24T18:03:14.415Z,71.10
2022-10-24T18:05:42.902Z,71.10
2022-10-24T18:08:12.310Z,71.30
2022-10-24T18:10:41.338Z,71.30
2022-10-24T18:13:10.320Z,71.30
2022-10-24T18:15:42.073Z,71.40
2022-10-24T18:18:10.426Z,71.50
2022-10-24T18:20:38.760Z,71.50
2022-10-24T18:23:06.861Z,71.50
2022-10-24T18:25:34.986Z,71.60
2022-10-24T18:28:03.126Z,71.70
2022-10-24T18:30:31.612Z,71.70
2022-10-24T18:33:01.098Z,71.90
2022-10-24T18:35:33.080Z,72.00
2022-10-24T18:38:02.078Z,72.00
2022-10-24T18:40:34.220Z,72.10
2022-10-24T18:43:05.696Z,72.10
2022-10-24T18:45:34.962Z,72.10
2022-10-24T18:48:05.348Z,72.10
2022-10-24T18:50:33.766Z,72.10
2022-10-24T18:53:05.752Z,72.10
2022-10-24T18:55:35.331Z,72.10
2022-10-24T18:58:03.760Z,72.10
2022-10-24T19:00:38.139Z,72.10
2022-10-24T19:03:19.848Z,73.20
2022-10-24T19:05:53.824Z,73.50
2022-10-24T19:08:26.924Z,73.80
2022-10-24T19:10:56.550Z,74.10
2022-10-24T19:13:25.603Z,73.90
2022-10-24T19:15:58.202Z,74.00
2022-10-24T19:18:30.053Z,73.80
2022-10-24T19:20:58.402Z,73.70
2022-10-24T19:23:26.629Z,73.50
2022-10-24T19:25:54.987Z,73.50
2022-10-24T19:28:25.138Z,73.30
2022-10-24T19:30:54.012Z,73.20
2022-10-24T19:33:27.788Z,73.10
2022-10-24T19:35:57.283Z,73.00
2022-10-24T19:38:25.483Z,72.90
2022-10-24T19:40:55.135Z,72.80
2022-10-24T19:43:24.933Z,72.80
2022-10-24T19:46:14.691Z,72.70
2022-10-24T19:48:43.407Z,72.60
2022-10-24T19:51:14.257Z,72.50
2022-10-24T19:53:44.017Z,72.40
2022-10-24T19:56:14.156Z,72.40
2022-10-24T19:58:43.239Z,72.30
2022-10-24T20:01:13.427Z,72.30
2022-10-24T20:03:43.255Z,72.30
2022-10-24T20:06:13.353Z,72.30
2022-10-24T20:08:41.494Z,72.30
2022-10-24T20:11:10.333Z,72.40
2022-10-24T20:13:38.973Z,72.40
2022-10-24T20:16:10.352Z,72.40
2022-10-24T20:18:42.608Z,72.40
2022-10-24T20:21:14.050Z,72.40
2022-10-24T20:23:42.352Z,72.40
2022-10-24T20:26:13.105Z,72.50
2022-10-24T20:28:43.563Z,72.60
2022-10-24T20:31:19.479Z,72.60
2022-10-24T20:33:47.696Z,72.60
2022-10-24T20:36:17.170Z,72.60
2022-10-24T20:38:45.275Z,72.60
2022-10-24T20:41:13.454Z,72.50
2022-10-24T20:43:41.583Z,72.50
2022-10-24T20:46:09.791Z,72.50
2022-10-24T20:48:37.901Z,72.50
2022-10-24T20:51:08.510Z,73.20
2022-10-24T20:53:38.512Z,74.70
2022-10-24T20:56:08.890Z,75.40
2022-10-24T20:58:38.709Z,75.10
2022-10-24T21:01:08.198Z,75.00
2022-10-24T21:03:37.131Z,74.90
2022-10-24T21:06:06.259Z,74.80
2022-10-24T21:08:34.375Z,74.90
2022-10-24T21:11:07.890Z,74.80
2022-10-24T21:13:35.982Z,74.70
2022-10-24T21:16:04.136Z,74.70
2022-10-24T21:18:32.569Z,74.60
2022-10-24T21:21:06.045Z,74.40
2022-10-24T21:23:34.139Z,74.50
2022-10-24T21:26:04.174Z,74.80
2022-10-24T21:28:34.145Z,74.80
2022-10-24T21:31:05.531Z,75.00
2022-10-24T21:33:34.786Z,74.90
2022-10-24T21:36:06.774Z,74.90
2022-10-24T21:38:35.151Z,74.80
2022-10-24T21:41:03.792Z,74.70
2022-10-24T21:43:34.446Z,74.80
2022-10-24T21:46:03.781Z,74.60
2022-10-24T21:48:32.682Z,74.60
2022-10-24T21:51:06.714Z,74.70
2022-10-24T21:53:37.935Z,74.60
2022-10-24T21:56:07.482Z,74.60
2022-10-24T21:58:37.301Z,74.60
2022-10-24T22:01:11.314Z,74.50
2022-10-24T22:03:39.486Z,74.50
2022-10-24T22:06:07.885Z,74.50
2022-10-24T22:08:36.028Z,74.50
2022-10-24T22:11:06.082Z,74.40
2022-10-24T22:13:37.062Z,74.40
2022-10-24T22:16:06.200Z,74.30
2022-10-24T22:18:35.123Z,74.30
2022-10-24T22:21:04.431Z,74.20
2022-10-24T22:23:32.834Z,74.20
2022-10-24T22:26:02.103Z,74.20
2022-10-24T22:28:30.291Z,74.20
2022-10-24T22:31:00.468Z,74.10
2022-10-24T22:33:34.603Z,74.10
2022-10-24T22:36:08.613Z,74.10
2022-10-24T22:38:37.382Z,74.10
2022-10-24T22:41:06.119Z,74.00
2022-10-24T22:43:34.967Z,74.00
2022-10-24T22:46:16.895Z,74.00
2022-10-24T22:48:49.244Z,74.00
2022-10-24T22:51:19.647Z,73.90
2022-10-24T22:53:48.460Z,73.80
2022-10-24T22:56:21.193Z,73.80
2022-10-24T22:58:51.402Z,73.70
2022-10-24T23:01:37.297Z,73.60
2022-10-24T23:04:13.932Z,73.60
2022-10-24T23:06:49.112Z,73.60
2022-10-24T23:09:17.173Z,73.50
2022-10-24T23:11:45.736Z,73.50
2022-10-24T23:16:54.111Z,73.40
2022-10-24T23:19:24.147Z,73.40
2022-10-24T23:21:57.090Z,73.40
2022-10-24T23:24:25.759Z,73.30
2022-10-24T23:27:11.338Z,73.30
2022-10-24T23:29:41.803Z,73.30
2022-10-24T23:32:17.658Z,73.30
2022-10-24T23:34:46.385Z,73.30
2022-10-24T23:37:25.004Z,73.30
2022-10-24T23:39:53.612Z,73.30
2022-10-24T23:42:22.271Z,73.20
2022-10-24T23:44:50.869Z,73.20
2022-10-24T23:47:37.160Z,73.20
2022-10-24T23:50:13.830Z,73.20
2022-10-24T23:53:03.023Z,73.20
2022-10-24T23:55:31.866Z,73.20
2022-10-24T23:58:01.113Z,73.20
